createdAt,value
2023-04-16T00:01:14.932Z,99.90
2023-04-16T00:03:46.256Z,99.90
2023-04-16T00:06:20.322Z,99.90
2023-04-16T00:08:52.514Z,99.30
2023-04-16T00:11:35.760Z,99.70
2023-04-16T00:14:06.431Z,99.50
2023-04-16T00:16:46.650Z,99.60
2023-04-16T00:19:14.788Z,99.70
2023-04-16T00:24:45.385Z,99.40
2023-04-16T00:27:13.301Z,99.60
2023-04-16T00:29:41.173Z,98.80
2023-04-16T00:32:09.178Z,98.80
2023-04-16T00:34:40.319Z,99.40
2023-04-16T00:37:23.215Z,99.50
2023-04-16T00:40:02.648Z,99.20
2023-04-16T00:42:37.191Z,99.20
2023-04-16T00:45:10.589Z,99.10
2023-04-16T00:47:55.242Z,98.90
2023-04-16T00:50:26.364Z,99.10
2023-04-16T00:52:54.495Z,99.10
2023-04-16T00:55:23.922Z,99.40
2023-04-16T00:57:57.048Z,99.40
2023-04-16T01:00:28.058Z,99.30
2023-04-16T01:02:56.871Z,99.60
2023-04-16T01:05:24.928Z,99.50
2023-04-16T01:07:55.317Z,99.40
2023-04-16T01:10:34.875Z,99.90
2023-04-16T01:13:02.811Z,99.70
2023-04-16T01:15:30.910Z,99.30
2023-04-16T01:17:58.776Z,98.80
2023-04-16T01:20:29.183Z,98.80
2023-04-16T01:23:01.444Z,98.90
2023-04-16T01:25:32.141Z,99.60
2023-04-16T01:28:06.293Z,99.10
2023-04-16T01:30:37.194Z,99.00
2023-04-16T01:33:08.863Z,99.30
2023-04-16T01:35:36.754Z,99.00
2023-04-16T01:38:09.920Z,99.30
2023-04-16T01:40:52.123Z,99.60
2023-04-16T01:43:30.590Z,99.20
2023-04-16T01:46:27.325Z,99.80
2023-04-16T01:48:57.999Z,99.20
2023-04-16T01:51:38.656Z,99.60
2023-04-16T01:54:16.291Z,99.40
2023-04-16T01:57:06.706Z,98.60
2023-04-16T01:59:34.582Z,98.50
2023-04-16T02:02:11.944Z,98.50
2023-04-16T02:04:42.759Z,98.60
2023-04-16T02:07:16.236Z,99.00
2023-04-16T02:09:50.156Z,99.20
2023-04-16T02:12:18.481Z,98.70
2023-04-16T02:14:46.568Z,98.50
2023-04-16T02:17:23.229Z,98.40
2023-04-16T02:19:51.158Z,99.30
2023-04-16T02:22:21.419Z,99.20
2023-04-16T02:25:05.968Z,99.60
2023-04-16T02:27:39.606Z,99.80
2023-04-16T02:30:08.632Z,99.90
2023-04-16T02:32:36.513Z,99.90
2023-04-16T02:35:07.779Z,99.90
2023-04-16T02:37:40.696Z,99.90
2023-04-16T02:40:11.714Z,99.90
2023-04-16T02:42:39.582Z,99.90
2023-04-16T02:45:16.791Z,99.90
2023-04-16T02:47:48.397Z,99.90
2023-04-16T02:50:28.716Z,99.90
2023-04-16T02:52:59.520Z,99.90
2023-04-16T02:55:34.566Z,99.90
2023-04-16T02:58:05.458Z,99.90
2023-04-16T03:00:36.429Z,99.90
2023-04-16T03:03:11.595Z,99.90
2023-04-16T03:05:40.389Z,99.90
2023-04-16T03:08:11.473Z,99.90
2023-04-16T03:10:41.354Z,99.90
2023-04-16T03:13:26.744Z,99.90
2023-04-16T03:15:54.664Z,99.90
2023-04-16T03:18:28.465Z,99.90
2023-04-16T03:21:13.473Z,99.90
2023-04-16T03:23:44.436Z,99.90
2023-04-16T03:26:16.376Z,99.90
2023-04-16T03:28:49.030Z,99.90
2023-04-16T03:31:16.949Z,99.90
2023-04-16T03:33:47.866Z,99.90
2023-04-16T03:36:15.705Z,99.90
2023-04-16T03:38:45.740Z,99.90
2023-04-16T03:41:32.647Z,99.60
2023-04-16T03:44:03.394Z,99.60
2023-04-16T03:46:47.900Z,99.80
2023-04-16T03:49:15.809Z,99.30
2023-04-16T03:51:47.345Z,99.70
2023-04-16T03:54:19.614Z,99.60
2023-04-16T03:56:53.130Z,99.70
2023-04-16T03:59:24.133Z,99.70
2023-04-16T04:01:52.126Z,99.10
2023-04-16T04:04:20.277Z,98.90
2023-04-16T04:06:48.276Z,99.80
2023-04-16T04:09:16.363Z,99.80
2023-04-16T04:11:47.041Z,99.80
2023-04-16T04:14:16.286Z,99.50
2023-04-16T04:16:46.978Z,99.50
2023-04-16T04:19:17.677Z,99.40
2023-04-16T04:21:51.141Z,99.60
2023-04-16T04:24:25.159Z,99.40
2023-04-16T04:26:57.600Z,99.00
2023-04-16T04:29:36.531Z,99.50
2023-04-16T04:32:07.666Z,99.90
2023-04-16T04:34:39.346Z,99.60
2023-04-16T04:37:10.537Z,99.20
2023-04-16T04:39:38.370Z,98.90
2023-04-16T04:42:06.268Z,98.80
2023-04-16T04:44:35.493Z,98.80
2023-04-16T04:47:17.272Z,98.50
2023-04-16T04:49:47.914Z,98.60
2023-04-16T04:52:15.816Z,98.30
2023-04-16T04:55:01.423Z,98.70
2023-04-16T04:57:35.395Z,99.30
2023-04-16T05:00:05.097Z,99.10
2023-04-16T05:02:39.412Z,98.80
2023-04-16T05:05:07.981Z,98.70
2023-04-16T05:07:38.739Z,98.70
2023-04-16T05:10:07.675Z,99.20
2023-04-16T05:12:35.644Z,99.30
2023-04-16T05:15:08.864Z,99.60
2023-04-16T05:17:44.312Z,99.60
2023-04-16T05:20:12.390Z,99.60
2023-04-16T05:22:40.319Z,99.90
2023-04-16T05:25:08.797Z,99.90
2023-04-16T05:27:50.266Z,99.90
2023-04-16T05:30:19.625Z,99.90
2023-04-16T05:32:50.695Z,99.90
2023-04-16T05:35:24.600Z,99.90
2023-04-16T05:37:55.612Z,99.90
2023-04-16T05:40:26.950Z,99.90
2023-04-16T05:42:54.809Z,99.90
2023-04-16T05:45:33.416Z,99.90
2023-04-16T05:48:01.345Z,99.90
2023-04-16T05:50:31.407Z,99.60
2023-04-16T05:53:02.375Z,98.90
2023-04-16T05:55:30.253Z,98.60
2023-04-16T05:58:11.705Z,98.40
2023-04-16T06:00:41.275Z,98.40
2023-04-16T06:03:14.608Z,98.90
2023-04-16T06:05:42.682Z,98.40
2023-04-16T06:08:10.687Z,98.60
2023-04-16T06:10:38.640Z,98.10
2023-04-16T06:13:06.531Z,97.60
2023-04-16T06:15:41.760Z,97.70
2023-04-16T06:18:12.634Z,97.40
2023-04-16T06:20:40.622Z,98.00
2023-04-16T06:23:08.556Z,98.20
2023-04-16T06:25:45.481Z,98.40
2023-04-16T06:28:13.358Z,99.10
2023-04-16T06:30:49.262Z,99.40
2023-04-16T06:33:17.487Z,99.70
2023-04-16T06:35:45.310Z,99.50
2023-04-16T06:38:13.119Z,99.80
2023-04-16T06:40:43.177Z,99.60
2023-04-16T06:43:11.033Z,99.10
2023-04-16T06:45:38.916Z,99.30
2023-04-16T06:48:13.829Z,99.40
2023-04-16T06:50:44.813Z,99.30
2023-04-16T06:53:15.451Z,99.30
2023-04-16T06:55:50.728Z,98.90
2023-04-16T06:58:18.591Z,99.10
2023-04-16T07:00:51.762Z,99.20
2023-04-16T07:03:23.798Z,99.50
2023-04-16T07:05:51.862Z,99.60
2023-04-16T07:08:19.737Z,99.90
2023-04-16T07:10:47.619Z,99.90
2023-04-16T07:13:15.763Z,99.60
2023-04-16T07:15:43.638Z,99.70
2023-04-16T07:18:21.711Z,99.90
2023-04-16T07:20:49.830Z,99.90
2023-04-16T07:23:17.719Z,99.90
2023-04-16T07:25:51.434Z,99.90
2023-04-16T07:28:21.689Z,99.90
2023-04-16T07:31:02.711Z,99.90
2023-04-16T07:33:31.947Z,99.90
2023-04-16T07:35:59.843Z,99.90
2023-04-16T07:38:27.711Z,99.70
2023-04-16T07:40:56.603Z,99.90
2023-04-16T07:43:36.277Z,99.90
2023-04-16T07:46:04.148Z,99.80
2023-04-16T07:48:38.986Z,99.90
2023-04-16T07:51:12.862Z,99.90
2023-04-16T07:53:41.125Z,99.90
2023-04-16T07:56:11.837Z,99.90
2023-04-16T07:58:39.719Z,99.90
2023-04-16T08:01:07.625Z,99.90
2023-04-16T08:03:37.097Z,99.90
2023-04-16T08:06:05.463Z,99.90
2023-04-16T08:08:36.254Z,99.90
2023-04-16T08:11:07.239Z,99.90
2023-04-16T08:13:38.141Z,99.90
2023-04-16T08:16:11.699Z,99.90
2023-04-16T08:18:41.012Z,99.90
2023-04-16T08:21:09.410Z,99.90
2023-04-16T08:23:37.349Z,99.90
2023-04-16T08:26:07.945Z,99.90
2023-04-16T08:28:38.669Z,99.90
2023-04-16T08:31:06.878Z,99.90
2023-04-16T08:33:34.836Z,99.90
2023-04-16T08:36:16.324Z,99.90
2023-04-16T08:38:44.257Z,99.90
2023-04-16T08:41:14.891Z,99.90
2023-04-16T08:43:54.742Z,99.90
2023-04-16T08:46:25.792Z,99.90
2023-04-16T08:48:56.300Z,99.90
2023-04-16T08:51:29.683Z,99.90
2023-04-16T08:54:03.851Z,99.90
2023-04-16T08:56:42.829Z,99.90
2023-04-16T08:59:13.896Z,99.90
2023-04-16T09:01:42.164Z,99.90
2023-04-16T09:04:14.991Z,99.90
2023-04-16T09:06:50.555Z,99.90
2023-04-16T09:09:25.078Z,99.90
2023-04-16T09:11:56.984Z,99.90
2023-04-16T09:14:28.280Z,99.90
2023-04-16T09:16:56.507Z,99.90
2023-04-16T09:19:33.394Z,99.90
2023-04-16T09:22:03.187Z,99.90
2023-04-16T09:24:38.404Z,99.90
2023-04-16T09:27:09.206Z,99.90
2023-04-16T09:29:42.161Z,99.90
2023-04-16T09:32:12.364Z,99.90
2023-04-16T09:35:02.335Z,99.90
2023-04-16T09:37:36.924Z,99.90
2023-04-16T09:40:05.857Z,99.90
2023-04-16T09:42:41.159Z,99.90
2023-04-16T09:45:17.369Z,99.90
2023-04-16T09:47:48.945Z,99.90
2023-04-16T09:50:18.929Z,99.90
2023-04-16T09:52:55.834Z,99.90
2023-04-16T09:55:33.548Z,99.90
2023-04-16T09:58:20.363Z,99.90
2023-04-16T10:00:58.454Z,99.90
2023-04-16T10:03:40.746Z,99.90
2023-04-16T10:06:18.188Z,99.90
2023-04-16T10:08:49.939Z,99.90
2023-04-16T10:11:24.311Z,99.90
2023-04-16T10:13:59.720Z,99.90
2023-04-16T10:16:27.854Z,99.90
2023-04-16T10:18:57.242Z,99.90
2023-04-16T10:21:35.993Z,99.90
2023-04-16T10:24:06.140Z,99.90
2023-04-16T10:26:36.119Z,99.90
2023-04-16T10:29:05.027Z,99.90
2023-04-16T10:31:43.607Z,99.90
2023-04-16T10:34:11.876Z,99.90
2023-04-16T10:36:49.402Z,99.90
2023-04-16T10:39:28.209Z,99.90
2023-04-16T10:42:09.973Z,99.90
2023-04-16T10:44:37.828Z,99.90
2023-04-16T10:47:13.197Z,99.90
2023-04-16T10:49:41.405Z,99.90
2023-04-16T10:52:12.349Z,99.90
2023-04-16T10:54:55.629Z,99.90
2023-04-16T10:57:23.474Z,99.90
2023-04-16T10:59:53.839Z,99.90
2023-04-16T11:02:21.952Z,99.90
2023-04-16T11:04:53.025Z,99.90
2023-04-16T11:07:36.045Z,99.90
2023-04-16T11:10:07.698Z,99.90
2023-04-16T11:12:38.436Z,99.90
2023-04-16T11:15:08.359Z,99.90
2023-04-16T11:17:43.802Z,99.90
2023-04-16T11:20:20.494Z,99.90
2023-04-16T11:22:49.192Z,99.90
2023-04-16T11:25:22.782Z,99.60
2023-04-16T11:27:51.162Z,99.30
2023-04-16T11:30:36.505Z,99.30
2023-04-16T11:33:11.189Z,99.20
2023-04-16T11:35:39.787Z,99.30
2023-04-16T11:38:10.554Z,99.30
2023-04-16T11:40:39.764Z,98.80
2023-04-16T11:43:15.360Z,99.50
2023-04-16T11:46:02.625Z,97.90
2023-04-16T11:48:52.880Z,97.40
2023-04-16T11:51:24.220Z,97.60
2023-04-16T11:53:56.052Z,97.90
2023-04-16T11:56:29.367Z,98.70
2023-04-16T11:59:16.600Z,98.70
2023-04-16T12:01:58.264Z,98.80
2023-04-16T12:04:29.226Z,98.60
2023-04-16T12:07:09.343Z,98.30
2023-04-16T12:09:40.260Z,98.10
2023-04-16T12:12:32.042Z,98.00
2023-04-16T12:15:07.098Z,97.80
2023-04-16T12:17:47.799Z,97.80
2023-04-16T12:20:19.370Z,97.80
2023-04-16T12:22:52.789Z,98.20
2023-04-16T12:25:32.619Z,98.10
2023-04-16T12:28:07.993Z,98.50
2023-04-16T12:31:00.542Z,98.20
2023-04-16T12:33:31.492Z,98.00
2023-04-16T12:35:59.757Z,97.70
2023-04-16T12:38:28.728Z,96.60
2023-04-16T12:41:02.494Z,97.00
2023-04-16T12:43:35.021Z,96.80
2023-04-16T12:46:06.661Z,97.30
2023-04-16T12:48:34.709Z,97.50
2023-04-16T12:51:08.710Z,97.10
2023-04-16T12:53:36.684Z,97.30
2023-04-16T12:56:10.246Z,97.40
2023-04-16T12:58:42.313Z,97.80
2023-04-16T13:01:11.780Z,97.40
2023-04-16T13:03:39.832Z,97.30
2023-04-16T13:06:13.426Z,97.10
2023-04-16T13:08:59.806Z,96.70
2023-04-16T13:11:27.725Z,97.20
2023-04-16T13:13:57.184Z,96.90
2023-04-16T13:16:28.024Z,97.30
2023-04-16T13:19:10.190Z,97.80
2023-04-16T13:21:44.288Z,98.20
2023-04-16T13:24:15.398Z,98.30
2023-04-16T13:26:49.468Z,97.30
2023-04-16T13:29:21.591Z,97.30
2023-04-16T13:31:53.095Z,97.40
2023-04-16T13:34:21.208Z,97.80
2023-04-16T13:36:51.883Z,98.10
2023-04-16T13:39:22.872Z,97.70
2023-04-16T13:41:53.548Z,97.00
2023-04-16T13:44:25.801Z,96.80
2023-04-16T13:47:02.928Z,96.60
2023-04-16T13:49:35.910Z,97.20
2023-04-16T13:52:11.702Z,97.30
2023-04-16T13:54:40.420Z,97.00
2023-04-16T13:57:11.137Z,97.00
2023-04-16T13:59:40.420Z,97.20
2023-04-16T14:02:09.209Z,97.30
2023-04-16T14:04:37.132Z,97.50
2023-04-16T14:07:11.237Z,97.00
2023-04-16T14:09:39.084Z,97.00
2023-04-16T14:12:07.517Z,96.60
2023-04-16T14:14:39.826Z,96.60
2023-04-16T14:17:12.891Z,97.00
2023-04-16T14:19:49.932Z,96.50
2023-04-16T14:22:19.953Z,95.70
2023-04-16T14:24:50.992Z,96.10
2023-04-16T14:27:21.621Z,96.50
2023-04-16T14:30:00.739Z,95.90
2023-04-16T14:32:29.145Z,96.10
2023-04-16T14:34:57.240Z,96.20
2023-04-16T14:37:26.218Z,96.10
2023-04-16T14:39:54.553Z,95.80
2023-04-16T14:42:32.828Z,95.70
2023-04-16T14:45:06.475Z,95.90
2023-04-16T14:47:34.645Z,95.60
2023-04-16T14:50:02.615Z,95.70
2023-04-16T14:52:36.549Z,96.10
2023-04-16T14:57:56.717Z,95.70
2023-04-16T15:00:43.837Z,96.30
2023-04-16T15:03:20.696Z,95.70
2023-04-16T15:05:57.082Z,96.10
2023-04-16T15:08:25.446Z,95.90
2023-04-16T15:10:53.326Z,95.60
2023-04-16T15:13:21.358Z,95.80
2023-04-16T15:15:53.616Z,95.50
2023-04-16T15:18:21.496Z,95.40
2023-04-16T15:20:51.345Z,95.40
2023-04-16T15:23:25.601Z,95.30
2023-04-16T15:25:53.470Z,95.30
2023-04-16T15:28:28.864Z,95.10
2023-04-16T15:31:04.372Z,96.10
2023-04-16T15:33:35.287Z,95.40
2023-04-16T15:36:06.220Z,95.70
2023-04-16T15:38:34.194Z,95.10
2023-04-16T15:41:02.064Z,95.40
2023-04-16T15:43:30.460Z,95.40
2023-04-16T15:45:58.414Z,95.00
2023-04-16T15:48:27.735Z,95.40
2023-04-16T15:50:55.944Z,94.80
2023-04-16T15:53:23.958Z,94.80
2023-04-16T15:55:53.564Z,94.70
2023-04-16T15:58:22.296Z,95.10
2023-04-16T16:00:50.803Z,95.30
2023-04-16T16:03:24.735Z,95.30
2023-04-16T16:05:59.267Z,95.00
2023-04-16T16:08:34.080Z,95.50
2023-04-16T16:11:08.093Z,95.50
2023-04-16T16:13:38.992Z,94.80
2023-04-16T16:16:10.489Z,94.90
2023-04-16T16:18:38.465Z,94.90
2023-04-16T16:21:07.695Z,94.40
2023-04-16T16:23:40.808Z,94.70
2023-04-16T16:26:09.158Z,94.90
2023-04-16T16:28:44.592Z,94.90
2023-04-16T16:31:12.868Z,94.80
2023-04-16T16:33:49.763Z,94.80
2023-04-16T16:36:19.201Z,94.70
2023-04-16T16:38:47.448Z,95.30
2023-04-16T16:41:15.390Z,94.90
2023-04-16T16:43:48.460Z,94.80
2023-04-16T16:46:16.601Z,94.90
2023-04-16T16:48:47.220Z,94.80
2023-04-16T16:51:16.502Z,94.70
2023-04-16T16:53:48.343Z,94.90
2023-04-16T16:56:16.312Z,94.60
2023-04-16T16:58:53.711Z,94.80
2023-04-16T17:01:31.318Z,94.60
2023-04-16T17:04:02.610Z,94.70
2023-04-16T17:06:31.603Z,95.10
2023-04-16T17:09:00.993Z,95.00
2023-04-16T17:11:29.319Z,94.50
2023-04-16T17:14:00.371Z,94.60
2023-04-16T17:16:34.475Z,94.90
2023-04-16T17:19:02.358Z,94.90
2023-04-16T17:21:32.029Z,94.70
2023-04-16T17:24:01.266Z,94.90
2023-04-16T17:26:29.174Z,95.00
2023-04-16T17:29:06.106Z,94.80
2023-04-16T17:31:34.069Z,95.10
2023-04-16T17:34:05.936Z,95.10
2023-04-16T17:36:36.881Z,95.80
2023-04-16T17:39:09.189Z,95.00
2023-04-16T17:41:37.087Z,94.80
2023-04-16T17:44:04.973Z,94.80
2023-04-16T17:46:32.934Z,94.60
2023-04-16T17:49:03.760Z,95.00
2023-04-16T17:51:32.041Z,95.10
2023-04-16T17:54:07.135Z,95.30
2023-04-16T17:56:36.369Z,94.80
2023-04-16T17:59:12.403Z,94.90
2023-04-16T18:01:40.889Z,95.00
2023-04-16T18:04:09.165Z,94.90
2023-04-16T18:06:37.200Z,95.40
2023-04-16T18:09:05.890Z,95.60
2023-04-16T18:11:36.245Z,95.10
2023-04-16T18:14:05.617Z,95.30
2023-04-16T18:16:36.620Z,94.70
2023-04-16T18:19:13.274Z,94.80
2023-04-16T18:21:44.507Z,95.00
2023-04-16T18:24:18.340Z,95.10
2023-04-16T18:26:47.144Z,95.10
2023-04-16T18:29:24.990Z,96.00
2023-04-16T18:31:55.151Z,96.30
2023-04-16T18:34:25.405Z,95.70
2023-04-16T18:36:53.332Z,95.50
2023-04-16T18:39:21.224Z,95.40
2023-04-16T18:41:55.076Z,95.70
2023-04-16T18:44:27.119Z,95.90
2023-04-16T18:46:55.039Z,95.30
2023-04-16T18:49:34.174Z,95.40
2023-04-16T18:52:08.684Z,95.40
2023-04-16T18:54:37.325Z,95.40
2023-04-16T18:57:05.493Z,95.70
2023-04-16T18:59:34.708Z,95.60
2023-04-16T19:02:05.337Z,95.40
2023-04-16T19:04:36.331Z,95.50
2023-04-16T19:07:07.072Z,95.30
2023-04-16T19:09:34.925Z,95.30
2023-04-16T19:12:05.990Z,95.10
2023-04-16T19:14:38.182Z,95.50
2023-04-16T19:17:06.057Z,95.30
2023-04-16T19:20:01.834Z,95.30
2023-04-16T19:22:29.741Z,95.30
2023-04-16T19:24:57.576Z,95.20
2023-04-16T19:27:25.417Z,95.30
2023-04-16T19:29:55.614Z,95.20
2023-04-16T19:32:23.834Z,95.40
2023-04-16T19:34:51.714Z,95.50
2023-04-16T19:37:19.546Z,95.40
2023-04-16T19:39:47.617Z,95.50
2023-04-16T19:42:33.811Z,95.80
2023-04-16T19:45:09.316Z,96.40
2023-04-16T19:47:48.658Z,96.50
2023-04-16T19:50:21.922Z,96.60
2023-04-16T19:52:49.774Z,96.90
2023-04-16T19:55:18.895Z,96.90
2023-04-16T19:57:55.484Z,97.00
2023-04-16T20:00:24.733Z,97.30
2023-04-16T20:02:55.738Z,97.70
2023-04-16T20:05:37.598Z,97.80
2023-04-16T20:08:06.117Z,97.80
2023-04-16T20:10:36.975Z,97.90
2023-04-16T20:13:06.464Z,98.30
2023-04-16T20:15:41.013Z,98.60
2023-04-16T20:18:16.169Z,98.70
2023-04-16T20:20:47.016Z,98.60
2023-04-16T20:23:17.847Z,98.30
2023-04-16T20:25:46.188Z,98.40
2023-04-16T20:28:16.073Z,98.50
2023-04-16T20:30:54.202Z,98.60
2023-04-16T20:33:28.244Z,98.60
2023-04-16T20:36:01.090Z,98.60
2023-04-16T20:38:32.097Z,98.80
2023-04-16T20:41:09.972Z,98.90
2023-04-16T20:43:42.232Z,98.70
2023-04-16T20:46:12.683Z,98.60
2023-04-16T20:48:40.663Z,98.70
2023-04-16T20:51:09.332Z,98.70
2023-04-16T20:53:40.304Z,98.40
2023-04-16T20:56:14.611Z,98.00
2023-04-16T20:58:43.652Z,97.80
2023-04-16T21:01:33.084Z,97.70
2023-04-16T21:04:01.525Z,97.70
2023-04-16T21:06:32.711Z,97.60
2023-04-16T21:09:05.106Z,97.20
2023-04-16T21:11:34.662Z,97.20
2023-04-16T21:14:08.361Z,97.20
2023-04-16T21:16:37.677Z,97.20
2023-04-16T21:19:09.367Z,97.20
2023-04-16T21:21:41.679Z,97.10
2023-04-16T21:24:17.801Z,97.10
2023-04-16T21:26:48.676Z,97.20
2023-04-16T21:29:19.823Z,97.20
2023-04-16T21:31:58.409Z,97.20
2023-04-16T21:34:28.722Z,97.10
2023-04-16T21:36:56.585Z,97.00
2023-04-16T21:39:30.769Z,96.90
2023-04-16T21:41:58.668Z,97.00
2023-04-16T21:44:26.589Z,96.90
2023-04-16T21:46:58.095Z,97.10
2023-04-16T21:49:35.063Z,96.90
2023-04-16T21:52:02.927Z,97.00
2023-04-16T21:54:30.963Z,97.10
2023-04-16T21:56:59.126Z,96.80
2023-04-16T21:59:26.994Z,96.70
2023-04-16T22:01:56.514Z,96.80
2023-04-16T22:04:37.217Z,96.70
2023-04-16T22:07:09.179Z,96.60
2023-04-16T22:09:43.602Z,96.50
2023-04-16T22:12:14.211Z,96.70
2023-04-16T22:14:55.784Z,96.40
2023-04-16T22:17:31.570Z,96.50
2023-04-16T22:20:04.711Z,96.50
2023-04-16T22:22:32.561Z,96.50
2023-04-16T22:25:00.530Z,96.50
2023-04-16T22:27:31.474Z,96.50
2023-04-16T22:29:59.422Z,96.60
2023-04-16T22:32:27.381Z,96.90
2023-04-16T22:34:59.167Z,96.80
2023-04-16T22:37:27.073Z,96.90
2023-04-16T22:39:54.915Z,96.80
2023-04-16T22:42:24.156Z,96.70
2023-04-16T22:45:11.635Z,96.60
2023-04-16T22:47:50.810Z,96.50
2023-04-16T22:50:20.687Z,96.70
2023-04-16T22:52:51.579Z,96.70
2023-04-16T22:55:25.534Z,96.60
2023-04-16T22:57:56.250Z,96.70
2023-04-16T23:00:27.248Z,96.80
2023-04-16T23:02:57.965Z,96.70
2023-04-16T23:05:27.374Z,96.60
2023-04-16T23:08:01.211Z,96.60
2023-04-16T23:10:40.849Z,96.70
2023-04-16T23:13:08.698Z,96.90
2023-04-16T23:15:44.417Z,97.00
2023-04-16T23:18:15.413Z,97.10
2023-04-16T23:20:54.301Z,97.20
2023-04-16T23:23:23.221Z,97.50
2023-04-16T23:26:02.744Z,97.60
2023-04-16T23:28:30.796Z,97.60
2023-04-16T23:31:05.973Z,97.90
2023-04-16T23:33:37.885Z,98.30
2023-04-16T23:36:09.315Z,98.60
2023-04-16T23:38:37.171Z,98.80
2023-04-16T23:41:05.056Z,98.90
2023-04-16T23:43:32.934Z,99.10
2023-04-16T23:46:01.996Z,99.10
2023-04-16T23:48:30.039Z,99.50
2023-04-16T23:50:57.891Z,99.80
2023-04-16T23:53:30.116Z,99.60
2023-04-16T23:56:00.895Z,99.20
2023-04-16T23:58:28.756Z,99.10
